Time;durP1;ratioP1;P1;durP2;ratioP2;P2;SDS_P1;SDS_P2;PMS_P1;PMS_P2;Temp;Humidity;BMP_temperature;BMP_pressure;BME280_temperature;BME280_humidity;BME280_pressure;Samples;Min_cycle;Max_cycle;Signal;HPM_P1;HPM_P2
2022/03/07 00:01:58;;;;;;;12.40;6.85;;;2.70;72.40;;;;;;5008420;28;25049;-75
2022/03/07 00:04:24;;;;;;;10.45;6.78;;;2.60;72.40;;;;;;5030566;28;25051;-76
2022/03/07 00:06:49;;;;;;;8.25;6.20;;;2.60;72.40;;;;;;5017273;28;25101;-78
2022/03/07 00:09:15;;;;;;;12.25;6.38;;;2.50;72.10;;;;;;5028047;28;25129;-76
2022/03/07 00:11:42;;;;;;;12.98;6.15;;;2.50;72.50;;;;;;5009543;28;25159;-76
2022/03/07 00:14:08;;;;;;;8.05;6.22;;;2.50;72.30;;;;;;5007593;28;25104;-76
2022/03/07 00:16:34;;;;;;;12.70;6.85;;;2.50;72.30;;;;;;5008611;28;25074;-76
2022/03/07 00:18:59;;;;;;;13.18;6.15;;;2.50;72.30;;;;;;4992121;28;25052;-75
2022/03/07 00:21:25;;;;;;;10.10;6.00;;;2.50;72.00;;;;;;4990032;28;25100;-76
2022/03/07 00:23:51;;;;;;;13.10;7.00;;;2.50;72.40;;;;;;5007882;28;25106;-76
2022/03/07 00:26:17;;;;;;;11.70;6.38;;;2.50;72.80;;;;;;4999484;28;25082;-76
2022/03/07 00:28:44;;;;;;;13.15;6.55;;;2.60;72.60;;;;;;4994910;28;25070;-76
2022/03/07 00:31:09;;;;;;;14.00;6.35;;;2.50;73.10;;;;;;5007740;28;25161;-76
2022/03/07 00:33:35;;;;;;;13.13;6.65;;;2.50;73.00;;;;;;5006147;28;25085;-75
2022/03/07 00:36:01;;;;;;;11.05;6.25;;;2.50;73.10;;;;;;5007749;28;25143;-76
2022/03/07 00:38:27;;;;;;;9.85;5.85;;;2.50;73.00;;;;;;5009402;28;25150;-77
2022/03/07 00:40:52;;;;;;;11.57;6.50;;;2.50;73.10;;;;;;5010296;28;25134;-77
2022/03/07 00:43:18;;;;;;;15.75;6.63;;;2.40;73.30;;;;;;5010634;28;25058;-77
2022/03/07 00:45:44;;;;;;;8.52;5.68;;;2.30;73.30;;;;;;5010646;28;25123;-77
2022/03/07 00:48:10;;;;;;;9.68;6.50;;;2.40;73.50;;;;;;5010737;28;25060;-76
2022/03/07 00:50:42;;;;;;;11.25;6.43;;;2.40;73.50;;;;;;5010566;28;25070;-76
2022/03/07 00:53:11;;;;;;;12.88;6.65;;;2.40;73.10;;;;;;5011220;28;25041;-76
2022/03/07 00:55:38;;;;;;;12.52;6.50;;;2.40;72.70;;;;;;5009462;28;25085;-77
2022/03/07 00:58:03;;;;;;;12.13;6.47;;;2.50;72.90;;;;;;5004361;28;25126;-77
2022/03/07 01:00:29;;;;;;;8.85;6.03;;;2.50;72.50;;;;;;5009984;28;25053;-76
2022/03/07 01:02:55;;;;;;;9.48;6.10;;;2.50;72.10;;;;;;5002801;28;25079;-76
2022/03/07 01:05:20;;;;;;;8.40;5.32;;;2.50;72.30;;;;;;5001547;28;25066;-77
2022/03/07 01:07:46;;;;;;;11.77;5.63;;;2.50;72.20;;;;;;5010065;28;25077;-77
2022/03/07 01:10:12;;;;;;;11.18;6.20;;;2.50;71.90;;;;;;4989485;28;25085;-77
2022/03/07 01:12:38;;;;;;;13.13;6.60;;;2.50;72.20;;;;;;4997627;28;25140;-78
2022/03/07 01:15:05;;;;;;;10.63;6.55;;;2.60;72.40;;;;;;5007026;28;25067;-78
2022/03/07 01:17:31;;;;;;;11.68;6.40;;;2.60;71.70;;;;;;5011337;28;25078;-75
2022/03/07 01:19:57;;;;;;;11.70;6.15;;;2.60;72.00;;;;;;5010150;28;25143;-75
2022/03/07 01:22:22;;;;;;;12.90;6.07;;;2.50;72.00;;;;;;5009674;28;25065;-77
2022/03/07 01:24:48;;;;;;;10.88;6.50;;;2.50;71.90;;;;;;5010233;28;25060;-75
2022/03/07 01:27:13;;;;;;;10.52;6.38;;;2.50;71.50;;;;;;4991132;28;25071;-76
2022/03/07 01:29:39;;;;;;;9.70;6.28;;;2.40;71.60;;;;;;5000658;28;25080;-77
2022/03/07 01:32:05;;;;;;;8.68;6.28;;;2.40;71.50;;;;;;4997617;28;25064;-76
2022/03/07 01:34:31;;;;;;;12.88;6.80;;;2.40;71.50;;;;;;5006094;28;25103;-76
2022/03/07 01:36:56;;;;;;;11.13;6.80;;;2.30;71.50;;;;;;5026730;28;25063;-77
2022/03/07 01:39:22;;;;;;;10.98;6.50;;;2.30;71.50;;;;;;5018242;28;25078;-76
2022/03/07 01:41:47;;;;;;;11.30;6.10;;;2.30;71.60;;;;;;5010874;28;25069;-77
2022/03/07 01:44:21;;;;;;;9.38;6.47;;;2.20;71.80;;;;;;4992338;28;25163;-77
2022/03/07 01:46:48;;;;;;;12.55;6.30;;;2.20;71.90;;;;;;5010958;28;25150;-77
2022/03/07 01:49:14;;;;;;;13.85;6.07;;;2.10;72.00;;;;;;5009657;28;25066;-76
2022/03/07 01:51:44;;;;;;;11.10;6.00;;;2.10;71.90;;;;;;5009968;28;25123;-76
2022/03/07 01:54:14;;;;;;;9.95;6.30;;;2.10;71.70;;;;;;5009186;28;25068;-76
2022/03/07 01:56:42;;;;;;;8.23;5.43;;;2.10;71.80;;;;;;5003501;28;25092;-74
2022/03/07 01:59:11;;;;;;;8.30;5.90;;;2.10;71.60;;;;;;5011042;28;25106;-76
2022/03/07 02:01:37;;;;;;;11.07;6.28;;;2.10;71.50;;;;;;5006068;28;25115;-76
2022/03/07 02:04:03;;;;;;;15.15;7.30;;;2.00;71.50;;;;;;5005619;28;25096;-76
2022/03/07 02:06:29;;;;;;;14.45;6.03;;;2.00;71.80;;;;;;5005524;28;25141;-77
2022/03/07 02:08:56;;;;;;;11.05;5.82;;;2.10;71.60;;;;;;5018493;28;25072;-75
2022/03/07 02:11:22;;;;;;;9.57;5.57;;;2.00;71.30;;;;;;5021388;28;25060;-75
2022/03/07 02:13:48;;;;;;;12.23;5.82;;;2.10;71.20;;;;;;5012266;28;25088;-76
2022/03/07 02:16:14;;;;;;;12.32;6.45;;;2.00;71.30;;;;;;5022833;28;25112;-75
2022/03/07 02:18:40;;;;;;;5.75;4.95;;;2.00;71.20;;;;;;5032378;28;25075;-78
2022/03/07 02:21:17;;;;;;;10.00;5.63;;;2.00;71.30;;;;;;5035195;28;25072;-77
2022/03/07 02:23:44;;;;;;;10.70;7.10;;;2.00;71.30;;;;;;5018067;28;25069;-75
2022/03/07 02:26:16;;;;;;;9.07;5.78;;;2.00;71.10;;;;;;5009626;28;25055;-77
2022/03/07 02:28:44;;;;;;;9.90;5.93;;;2.00;71.20;;;;;;5012655;28;25071;-77
2022/03/07 02:31:10;;;;;;;12.90;6.38;;;2.10;71.10;;;;;;5011211;28;25168;-77
2022/03/07 02:33:36;;;;;;;10.07;5.68;;;2.00;71.00;;;;;;5009547;28;25068;-77
2022/03/07 02:36:03;;;;;;;13.85;6.25;;;1.90;71.50;;;;;;4993742;28;25068;-75
2022/03/07 02:38:29;;;;;;;9.00;6.65;;;1.90;71.50;;;;;;5010891;28;25110;-78
2022/03/07 02:40:55;;;;;;;13.00;6.32;;;1.90;71.80;;;;;;5013083;28;25148;-75
2022/03/07 02:43:20;;;;;;;12.52;6.28;;;1.90;71.70;;;;;;5006437;28;25059;-76
2022/03/07 02:45:46;;;;;;;10.88;6.75;;;1.80;72.10;;;;;;5014385;28;25067;-77
2022/03/07 02:48:12;;;;;;;13.43;6.90;;;1.80;72.30;;;;;;5011787;28;25120;-77
2022/03/07 02:50:38;;;;;;;10.13;6.30;;;1.80;72.50;;;;;;5011518;28;25087;-76
2022/03/07 02:53:04;;;;;;;10.95;6.82;;;1.80;72.80;;;;;;5013533;28;25074;-76
2022/03/07 02:55:31;;;;;;;11.52;6.13;;;1.70;72.60;;;;;;5004990;28;25067;-76
2022/03/07 02:57:58;;;;;;;8.43;6.22;;;1.70;72.50;;;;;;5011937;28;25063;-75
2022/03/07 03:00:23;;;;;;;11.52;6.50;;;1.70;72.50;;;;;;5010413;28;25057;-77
2022/03/07 03:02:49;;;;;;;10.25;6.38;;;1.70;72.50;;;;;;5002512;28;25078;-76
2022/03/07 03:05:14;;;;;;;12.05;6.75;;;1.70;72.70;;;;;;4987970;28;25114;-76
2022/03/07 03:07:40;;;;;;;11.27;6.43;;;1.70;72.80;;;;;;5010232;28;25100;-76
2022/03/07 03:10:07;;;;;;;9.65;6.93;;;1.60;74.00;;;;;;5009648;28;25064;-76
2022/03/07 03:12:32;;;;;;;10.98;6.97;;;1.60;73.60;;;;;;5008742;28;25164;-76
2022/03/07 03:14:58;;;;;;;10.40;6.32;;;1.50;74.30;;;;;;5008960;28;25095;-77
2022/03/07 03:17:24;;;;;;;11.35;7.43;;;1.50;74.30;;;;;;5009224;28;25089;-76
2022/03/07 03:19:50;;;;;;;13.10;7.45;;;1.50;74.60;;;;;;4991317;28;25067;-76
2022/03/07 03:22:16;;;;;;;11.40;7.03;;;1.50;74.90;;;;;;5008669;28;25073;-76
2022/03/07 03:24:41;;;;;;;12.15;7.10;;;1.50;75.00;;;;;;5009065;28;25060;-77
2022/03/07 03:27:07;;;;;;;10.25;6.97;;;1.60;74.90;;;;;;5008313;28;25140;-77
2022/03/07 03:29:33;;;;;;;10.70;6.90;;;1.60;74.60;;;;;;5009803;28;25143;-77
2022/03/07 03:31:58;;;;;;;12.18;6.70;;;1.50;74.50;;;;;;4991545;28;25173;-77
2022/03/07 03:34:25;;;;;;;7.93;6.88;;;1.50;74.70;;;;;;5008617;28;25061;-76
2022/03/07 03:36:51;;;;;;;10.82;7.43;;;1.60;75.20;;;;;;5009989;28;25098;-77
2022/03/07 03:39:17;;;;;;;13.13;7.35;;;1.60;74.50;;;;;;4985171;28;25081;-77
2022/03/07 03:41:42;;;;;;;10.52;7.50;;;1.60;74.00;;;;;;5009306;28;25134;-76
2022/03/07 03:44:08;;;;;;;11.48;7.28;;;1.60;74.30;;;;;;5009395;28;25073;-76
2022/03/07 03:46:33;;;;;;;11.48;7.80;;;1.40;74.70;;;;;;4991008;28;25077;-77
2022/03/07 03:48:59;;;;;;;11.43;7.47;;;1.40;75.60;;;;;;5008696;28;25080;-75
2022/03/07 03:51:25;;;;;;;11.93;7.55;;;1.40;76.60;;;;;;5009325;28;25024;-76
2022/03/07 03:53:50;;;;;;;13.18;8.85;;;1.40;75.60;;;;;;5010794;28;25052;-76
2022/03/07 03:56:16;;;;;;;13.27;8.80;;;1.30;76.00;;;;;;5013682;28;25081;-77
2022/03/07 03:58:42;;;;;;;13.35;8.80;;;1.30;76.00;;;;;;5013645;28;25070;-77
2022/03/07 04:01:07;;;;;;;14.18;9.02;;;1.10;76.50;;;;;;5013809;28;25068;-77
2022/03/07 04:03:33;;;;;;;12.82;8.93;;;1.00;76.90;;;;;;5011660;28;25084;-74
2022/03/07 04:05:58;;;;;;;14.05;9.35;;;0.90;78.30;;;;;;5008694;28;25052;-76
2022/03/07 04:08:24;;;;;;;15.20;8.77;;;0.80;79.30;;;;;;5007393;28;25144;-76
2022/03/07 04:10:50;;;;;;;14.65;9.65;;;0.80;79.60;;;;;;5008039;28;25089;-76
2022/03/07 04:13:15;;;;;;;14.50;10.32;;;0.80;80.30;;;;;;5010254;28;25066;-77
2022/03/07 04:15:41;;;;;;;15.23;10.82;;;0.70;80.50;;;;;;5013416;28;25060;-76
2022/03/07 04:18:07;;;;;;;14.52;9.65;;;0.60;81.00;;;;;;5012797;28;25068;-77
2022/03/07 04:20:33;;;;;;;13.55;9.40;;;0.60;81.80;;;;;;5012130;28;25131;-76
2022/03/07 04:23:01;;;;;;;13.15;9.23;;;0.70;82.00;;;;;;5011555;28;25071;-77
2022/03/07 04:25:27;;;;;;;14.57;9.43;;;0.70;82.60;;;;;;5012707;28;25123;-77
2022/03/07 04:27:53;;;;;;;13.45;9.55;;;0.70;82.50;;;;;;5012612;28;25129;-76
2022/03/07 04:30:20;;;;;;;16.67;10.00;;;0.60;83.10;;;;;;5020168;28;25116;-77
2022/03/07 04:32:45;;;;;;;14.80;10.43;;;0.60;83.30;;;;;;5038330;28;25065;-76
2022/03/07 04:35:11;;;;;;;19.52;11.65;;;0.60;83.50;;;;;;5003837;28;25044;-76
2022/03/07 04:37:40;;;;;;;14.00;9.75;;;0.50;83.40;;;;;;5011321;28;25066;-75
2022/03/07 04:40:11;;;;;;;14.93;9.50;;;0.50;83.60;;;;;;5013935;28;25059;-74
2022/03/07 04:42:37;;;;;;;16.08;9.55;;;0.50;83.60;;;;;;5016635;28;25106;-76
2022/03/07 04:45:04;;;;;;;11.43;10.05;;;0.50;83.60;;;;;;4994410;28;25111;-76
2022/03/07 04:47:29;;;;;;;14.90;10.88;;;0.60;83.30;;;;;;5011063;28;25071;-76
2022/03/07 04:49:55;;;;;;;17.45;11.43;;;0.50;83.00;;;;;;5012204;28;25058;-76
2022/03/07 04:52:20;;;;;;;14.13;9.45;;;0.40;82.90;;;;;;5011459;28;25126;-77
2022/03/07 04:54:46;;;;;;;15.40;9.82;;;0.30;83.30;;;;;;5011532;28;25077;-76
2022/03/07 04:57:11;;;;;;;14.20;9.68;;;0.30;84.40;;;;;;4994475;28;25053;-76
2022/03/07 04:59:37;;;;;;;13.88;10.43;;;0.40;85.40;;;;;;5011823;28;25067;-77
2022/03/07 05:02:03;;;;;;;12.25;9.35;;;0.50;85.30;;;;;;5012119;28;25083;-77
2022/03/07 05:04:28;;;;;;;14.43;9.50;;;0.60;84.70;;;;;;4993407;28;25163;-76
2022/03/07 05:06:54;;;;;;;18.42;10.02;;;0.60;84.10;;;;;;5011584;28;25092;-77
2022/03/07 05:09:19;;;;;;;12.65;9.23;;;0.60;83.20;;;;;;5011751;28;25075;-77
2022/03/07 05:11:45;;;;;;;19.33;10.10;;;0.70;82.40;;;;;;5012304;28;25073;-77
2022/03/07 05:14:11;;;;;;;19.88;11.02;;;0.70;82.30;;;;;;5012035;28;25108;-79
2022/03/07 05:16:36;;;;;;;15.95;9.88;;;0.70;82.20;;;;;;5011580;28;25072;-77
2022/03/07 05:19:02;;;;;;;15.20;9.25;;;0.80;82.60;;;;;;5011429;28;25060;-77
2022/03/07 05:21:29;;;;;;;14.65;10.27;;;0.80;81.70;;;;;;5010878;28;25069;-77
2022/03/07 05:23:54;;;;;;;24.98;10.90;;;0.70;82.20;;;;;;5005135;28;25058;-77
2022/03/07 05:26:20;;;;;;;14.05;9.60;;;0.70;82.20;;;;;;5009506;28;25058;-78
2022/03/07 05:28:46;;;;;;;17.17;10.85;;;0.70;82.70;;;;;;5008535;28;25133;-77
2022/03/07 05:31:13;;;;;;;18.63;10.43;;;0.60;82.90;;;;;;5002393;28;25062;-76
2022/03/07 05:33:40;;;;;;;15.20;9.55;;;0.60;83.50;;;;;;5015917;28;25067;-78
2022/03/07 05:36:06;;;;;;;11.55;9.77;;;0.60;83.60;;;;;;5026531;28;25078;-78
2022/03/07 05:38:32;;;;;;;17.80;11.02;;;0.60;83.70;;;;;;5027424;28;25108;-76
2022/03/07 05:40:58;;;;;;;16.88;11.23;;;0.60;84.10;;;;;;4998215;28;25145;-76
2022/03/07 05:43:24;;;;;;;18.27;11.02;;;0.60;84.20;;;;;;5013360;28;25062;-78
2022/03/07 05:45:49;;;;;;;16.55;10.93;;;0.70;84.20;;;;;;4996706;28;25091;-74
2022/03/07 05:48:15;;;;;;;17.75;11.07;;;0.70;84.00;;;;;;5015300;28;25066;-76
2022/03/07 05:50:41;;;;;;;13.95;10.93;;;0.70;84.00;;;;;;5021992;28;25058;-77
2022/03/07 05:53:07;;;;;;;16.33;11.57;;;0.60;84.10;;;;;;5029307;28;25069;-77
2022/03/07 05:55:33;;;;;;;15.02;10.30;;;0.60;84.40;;;;;;5027725;28;25106;-79
2022/03/07 05:58:00;;;;;;;17.88;10.50;;;0.70;84.50;;;;;;5028325;28;25079;-76
2022/03/07 06:00:26;;;;;;;16.08;10.68;;;0.60;84.40;;;;;;5027292;28;25138;-77
2022/03/07 06:02:52;;;;;;;15.48;10.65;;;0.60;84.50;;;;;;5022666;28;25101;-78
2022/03/07 06:05:18;;;;;;;17.98;10.82;;;0.60;84.80;;;;;;5007569;28;25068;-78
2022/03/07 06:07:43;;;;;;;18.38;11.73;;;0.50;84.70;;;;;;5025653;28;25079;-76
2022/03/07 06:10:09;;;;;;;16.88;11.30;;;0.50;84.50;;;;;;5017617;28;25076;-77
2022/03/07 06:12:36;;;;;;;16.52;11.27;;;0.50;84.50;;;;;;5012294;28;25089;-76
2022/03/07 06:15:04;;;;;;;16.80;12.15;;;0.60;84.50;;;;;;5015392;28;25171;-76
2022/03/07 06:17:31;;;;;;;15.25;11.30;;;0.60;84.50;;;;;;5008581;28;25059;-76
2022/03/07 06:19:56;;;;;;;15.55;11.40;;;0.60;83.90;;;;;;5001798;28;25070;-76
2022/03/07 06:22:22;;;;;;;22.67;12.27;;;0.60;84.80;;;;;;5015555;28;25066;-75
2022/03/07 06:24:49;;;;;;;21.33;11.90;;;0.60;85.60;;;;;;4999908;28;25106;-77
2022/03/07 06:27:14;;;;;;;21.10;11.85;;;0.50;85.10;;;;;;5017997;28;25069;-76
2022/03/07 06:29:40;;;;;;;17.60;11.40;;;0.50;85.50;;;;;;5014372;28;25102;-77
2022/03/07 06:32:07;;;;;;;20.48;13.25;;;0.50;85.50;;;;;;5009293;28;25063;-77
2022/03/07 06:34:33;;;;;;;24.02;13.30;;;0.50;85.20;;;;;;5007215;28;25107;-78
2022/03/07 06:37:02;;;;;;;17.58;12.32;;;0.50;85.50;;;;;;5008586;28;25074;-77
2022/03/07 06:39:27;;;;;;;17.63;12.25;;;0.50;85.50;;;;;;5001788;28;25075;-77
2022/03/07 06:41:55;;;;;;;20.00;13.02;;;0.40;85.70;;;;;;5000655;28;25081;-78
2022/03/07 06:44:21;;;;;;;19.67;12.98;;;0.50;85.20;;;;;;5023088;28;25051;-78
2022/03/07 06:46:46;;;;;;;18.45;13.65;;;0.50;85.40;;;;;;5022901;28;25083;-76
2022/03/07 06:49:12;;;;;;;18.13;12.95;;;0.50;85.70;;;;;;5008943;28;25061;-76
2022/03/07 06:51:38;;;;;;;20.35;12.75;;;0.50;85.70;;;;;;5009093;28;25129;-77
2022/03/07 06:54:04;;;;;;;23.30;12.57;;;0.50;85.70;;;;;;5008411;28;25089;-76
2022/03/07 06:56:29;;;;;;;21.80;13.55;;;0.60;85.30;;;;;;5004041;28;25067;-76
2022/03/07 06:58:55;;;;;;;20.15;12.88;;;0.50;84.90;;;;;;5005513;28;25079;-76
2022/03/07 07:01:21;;;;;;;24.25;14.00;;;0.60;85.10;;;;;;5009751;28;25080;-76
2022/03/07 07:03:46;;;;;;;29.88;12.90;;;0.60;85.00;;;;;;5003875;28;25090;-78
2022/03/07 07:06:13;;;;;;;20.02;12.82;;;0.50;85.00;;;;;;5006631;28;25103;-78
2022/03/07 07:08:38;;;;;;;22.45;13.15;;;0.60;84.80;;;;;;5002502;28;25048;-77
2022/03/07 07:11:04;;;;;;;23.10;14.38;;;0.60;84.80;;;;;;5004097;28;25062;-76
2022/03/07 07:13:30;;;;;;;23.17;13.50;;;0.70;84.60;;;;;;5015344;28;25079;-75
2022/03/07 07:15:56;;;;;;;18.90;12.18;;;0.70;84.50;;;;;;5009290;28;25157;-77
2022/03/07 07:18:23;;;;;;;22.70;13.23;;;0.70;84.40;;;;;;5005268;28;25101;-76
2022/03/07 07:20:50;;;;;;;24.30;14.00;;;0.70;84.20;;;;;;5005360;28;25154;-77
2022/03/07 07:23:17;;;;;;;25.20;14.23;;;0.80;83.90;;;;;;4997109;28;25056;-78
2022/03/07 07:25:43;;;;;;;21.80;12.70;;;0.80;83.80;;;;;;5009307;28;25141;-77
2022/03/07 07:28:09;;;;;;;28.63;14.07;;;0.90;83.80;;;;;;4983096;28;25057;-76
2022/03/07 07:30:34;;;;;;;28.67;16.38;;;0.90;84.00;;;;;;5007857;28;25093;-78
2022/03/07 07:33:00;;;;;;;25.67;14.82;;;1.00;84.00;;;;;;5011881;28;25073;-78
2022/03/07 07:35:25;;;;;;;18.80;13.40;;;1.00;83.60;;;;;;5010991;28;25060;-79
2022/03/07 07:37:54;;;;;;;18.13;13.57;;;1.10;83.90;;;;;;5009119;28;25108;-79
2022/03/07 07:40:20;;;;;;;21.75;14.27;;;1.10;83.30;;;;;;5001982;28;25052;-76
2022/03/07 07:42:46;;;;;;;21.85;15.73;;;1.10;83.10;;;;;;5009342;28;25069;-77
2022/03/07 07:45:12;;;;;;;21.17;13.88;;;1.10;83.10;;;;;;5010874;28;25091;-77
2022/03/07 07:47:38;;;;;;;21.88;13.25;;;1.20;83.20;;;;;;5009238;28;25072;-76
2022/03/07 07:50:04;;;;;;;20.85;13.48;;;1.30;82.90;;;;;;4993201;28;25086;-77
2022/03/07 07:52:30;;;;;;;18.88;13.80;;;1.40;82.30;;;;;;5010677;28;25159;-78
2022/03/07 07:54:56;;;;;;;21.60;14.57;;;1.50;82.10;;;;;;5010846;28;25056;-78
2022/03/07 07:57:21;;;;;;;19.42;14.05;;;1.60;81.90;;;;;;5011700;28;25097;-77
2022/03/07 07:59:47;;;;;;;21.77;13.30;;;1.60;81.30;;;;;;5011219;28;25091;-77
2022/03/07 08:02:12;;;;;;;19.70;13.60;;;1.70;79.70;;;;;;4993262;28;25044;-76
2022/03/07 08:04:38;;;;;;;19.10;13.32;;;1.80;79.40;;;;;;5008321;28;25190;-75
2022/03/07 08:07:04;;;;;;;16.25;11.80;;;1.90;79.00;;;;;;4999875;28;25054;-75
2022/03/07 08:09:29;;;;;;;17.95;12.73;;;2.00;78.20;;;;;;5007384;28;25067;-76
2022/03/07 08:11:55;;;;;;;17.95;12.77;;;2.00;76.10;;;;;;5004312;28;25056;-76
2022/03/07 08:14:20;;;;;;;17.85;12.50;;;2.10;75.00;;;;;;5001225;28;25079;-74
2022/03/07 08:16:46;;;;;;;19.38;12.38;;;2.20;74.80;;;;;;4993712;28;25066;-75
2022/03/07 08:19:12;;;;;;;17.17;11.80;;;2.30;74.00;;;;;;5012650;28;25069;-76
2022/03/07 08:21:37;;;;;;;18.15;11.77;;;2.40;73.40;;;;;;5018395;28;25096;-76
2022/03/07 08:24:03;;;;;;;18.27;11.27;;;2.50;71.60;;;;;;5005874;28;25074;-74
2022/03/07 08:26:29;;;;;;;16.50;12.05;;;2.50;70.50;;;;;;5011680;28;25046;-74
2022/03/07 08:28:55;;;;;;;15.23;11.18;;;2.70;70.00;;;;;;4997717;28;25151;-76
2022/03/07 08:31:21;;;;;;;17.60;10.70;;;2.90;67.90;;;;;;5000600;28;25144;-74
2022/03/07 08:33:46;;;;;;;17.20;9.93;;;3.00;67.40;;;;;;4998932;28;25057;-74
2022/03/07 08:36:12;;;;;;;15.27;10.10;;;3.20;65.60;;;;;;5001650;28;25074;-75
2022/03/07 08:38:38;;;;;;;14.80;10.20;;;3.40;65.00;;;;;;4998467;28;25065;-75
2022/03/07 08:41:03;;;;;;;13.70;10.38;;;3.60;62.90;;;;;;5007842;28;25069;-75
2022/03/07 08:43:29;;;;;;;15.65;10.45;;;3.60;60.70;;;;;;5004295;28;25050;-74
2022/03/07 08:45:55;;;;;;;14.18;9.85;;;3.70;59.90;;;;;;5009437;28;25083;-76
2022/03/07 08:48:20;;;;;;;14.90;9.20;;;3.80;57.50;;;;;;5008969;28;25058;-74
2022/03/07 08:50:48;;;;;;;9.82;8.00;;;3.60;57.20;;;;;;5009741;28;25094;-72
2022/03/07 08:53:17;;;;;;;12.65;8.82;;;3.80;58.30;;;;;;5004703;28;25082;-73
2022/03/07 08:55:44;;;;;;;13.00;8.23;;;4.00;57.70;;;;;;4981925;28;25154;-73
2022/03/07 08:58:09;;;;;;;12.00;8.50;;;4.00;55.80;;;;;;5017957;28;25117;-73
2022/03/07 09:00:35;;;;;;;16.77;8.90;;;4.20;55.20;;;;;;5019998;28;25080;-75
2022/03/07 09:03:00;;;;;;;10.25;8.40;;;4.20;55.80;;;;;;4996787;28;25068;-74
2022/03/07 09:05:26;;;;;;;13.50;9.18;;;4.40;55.70;;;;;;5012816;28;25098;-74
2022/03/07 09:07:52;;;;;;;10.48;7.55;;;4.60;53.80;;;;;;5012663;28;25063;-74
2022/03/07 09:10:17;;;;;;;10.43;7.63;;;4.80;51.40;;;;;;5011239;28;25112;-74
2022/03/07 09:12:43;;;;;;;11.93;8.27;;;4.70;52.90;;;;;;5011008;28;25147;-73
2022/03/07 09:15:09;;;;;;;9.32;7.53;;;4.90;51.70;;;;;;5011159;28;25055;-72
2022/03/07 09:17:35;;;;;;;13.52;8.13;;;5.30;51.80;;;;;;5010949;28;25063;-72
2022/03/07 09:20:01;;;;;;;8.45;7.40;;;5.20;49.60;;;;;;5011659;28;25064;-74
2022/03/07 09:22:27;;;;;;;10.02;7.57;;;5.50;48.20;;;;;;4992297;28;25066;-73
2022/03/07 09:24:53;;;;;;;13.23;7.50;;;5.40;50.50;;;;;;5010225;28;25106;-72
2022/03/07 09:27:19;;;;;;;8.90;7.03;;;5.30;46.50;;;;;;5010535;28;25055;-73
2022/03/07 09:29:46;;;;;;;10.15;7.80;;;5.20;47.30;;;;;;5009826;28;25065;-74
2022/03/07 09:32:11;;;;;;;10.32;7.60;;;5.10;47.00;;;;;;5010386;28;25151;-73
2022/03/07 09:34:37;;;;;;;10.85;6.45;;;4.80;46.30;;;;;;5010852;28;25062;-74
2022/03/07 09:37:04;;;;;;;12.23;7.22;;;4.60;46.60;;;;;;5011095;28;25051;-75
2022/03/07 09:39:31;;;;;;;9.13;7.47;;;4.80;48.30;;;;;;5011057;28;25096;-73
2022/03/07 09:41:58;;;;;;;9.40;6.95;;;5.00;48.60;;;;;;4994048;28;25067;-76
2022/03/07 09:44:24;;;;;;;11.23;7.15;;;4.70;46.80;;;;;;5011033;28;25047;-73
2022/03/07 09:46:50;;;;;;;9.57;6.32;;;4.70;48.00;;;;;;5010710;28;25068;-73
2022/03/07 09:49:19;;;;;;;11.93;7.20;;;5.00;45.00;;;;;;5011079;28;25079;-73
2022/03/07 09:51:44;;;;;;;10.75;6.28;;;5.10;44.90;;;;;;5012013;28;25152;-72
2022/03/07 09:54:10;;;;;;;9.60;6.70;;;5.30;44.20;;;;;;5010940;28;25058;-75
2022/03/07 09:56:35;;;;;;;11.38;6.95;;;5.50;42.90;;;;;;4998215;28;25071;-73
2022/03/07 09:59:01;;;;;;;10.02;6.65;;;5.40;44.00;;;;;;5003758;28;25175;-74
2022/03/07 10:01:26;;;;;;;9.85;6.68;;;5.20;43.20;;;;;;4997441;28;25064;-73
2022/03/07 10:04:04;;;;;;;8.27;6.40;;;5.00;44.80;;;;;;5002262;28;25085;-74
2022/03/07 10:06:31;;;;;;;10.32;6.60;;;5.10;46.40;;;;;;5005685;28;25063;-75
2022/03/07 10:08:58;;;;;;;8.43;6.20;;;5.20;45.20;;;;;;5002177;28;25065;-72
2022/03/07 10:11:26;;;;;;;8.73;6.78;;;5.30;43.90;;;;;;4999128;28;25059;-73
2022/03/07 10:13:59;;;;;;;9.00;6.38;;;5.20;43.00;;;;;;5001846;28;25053;-75
2022/03/07 10:16:39;;;;;;;13.40;7.22;;;5.00;44.00;;;;;;4995988;28;25071;-73
2022/03/07 10:19:12;;;;;;;9.77;6.07;;;5.20;45.00;;;;;;5000821;28;25065;-74
2022/03/07 10:21:50;;;;;;;11.70;6.70;;;5.30;43.40;;;;;;4997254;28;25062;-74
2022/03/07 10:24:16;;;;;;;5.95;5.07;;;5.30;43.70;;;;;;4999769;28;25169;-74
2022/03/07 10:26:42;;;;;;;8.63;6.13;;;5.80;43.90;;;;;;4981313;28;25077;-74
2022/03/07 10:29:07;;;;;;;9.43;6.45;;;6.10;41.60;;;;;;4998599;28;25109;-74
2022/03/07 10:31:34;;;;;;;10.40;6.07;;;6.10;40.00;;;;;;5000377;28;25154;-72
2022/03/07 10:34:07;;;;;;;7.78;5.70;;;5.90;41.70;;;;;;4974308;28;25069;-72
2022/03/07 10:36:38;;;;;;;10.48;5.80;;;6.20;40.60;;;;;;4999054;28;25072;-75
2022/03/07 10:39:08;;;;;;;6.20;5.20;;;5.90;41.10;;;;;;4996342;28;25076;-74
2022/03/07 10:41:38;;;;;;;8.88;5.88;;;5.80;40.30;;;;;;4995209;28;25090;-73
2022/03/07 10:44:08;;;;;;;8.95;6.40;;;5.70;39.00;;;;;;4998833;28;25054;-71
2022/03/07 10:46:34;;;;;;;10.15;5.97;;;5.50;40.70;;;;;;5001128;28;25055;-72
2022/03/07 10:49:00;;;;;;;10.77;5.95;;;5.80;40.70;;;;;;4989409;28;25057;-72
2022/03/07 10:51:26;;;;;;;6.22;5.38;;;6.00;38.00;;;;;;4997083;28;25085;-72
2022/03/07 10:53:53;;;;;;;6.13;4.90;;;6.30;38.70;;;;;;4998727;28;25073;-73
2022/03/07 10:56:21;;;;;;;7.63;5.38;;;6.20;38.40;;;;;;5010316;28;25065;-74
2022/03/07 10:58:55;;;;;;;13.43;6.00;;;6.30;39.10;;;;;;5010095;28;25112;-75
2022/03/07 11:01:33;;;;;;;9.32;5.68;;;6.30;37.20;;;;;;5013100;28;25058;-74
2022/03/07 11:03:59;;;;;;;8.98;6.25;;;6.50;37.30;;;;;;5001452;28;25084;-75
2022/03/07 11:06:26;;;;;;;7.15;6.03;;;6.50;37.20;;;;;;5006600;28;25071;-73
2022/03/07 11:08:53;;;;;;;7.97;5.40;;;6.30;36.50;;;;;;5016915;28;25065;-73
2022/03/07 11:11:20;;;;;;;10.10;6.50;;;6.20;36.70;;;;;;5012896;28;25142;-74
2022/03/07 11:13:50;;;;;;;8.10;6.22;;;6.30;38.50;;;;;;5022222;28;25060;-74
2022/03/07 11:16:16;;;;;;;7.78;6.10;;;6.30;36.80;;;;;;5019394;28;25157;-74
2022/03/07 11:18:47;;;;;;;10.07;6.07;;;6.40;37.70;;;;;;5012152;28;25059;-73
2022/03/07 11:21:13;;;;;;;6.40;5.75;;;6.70;36.70;;;;;;5010631;28;25058;-73
2022/03/07 11:23:39;;;;;;;6.82;5.20;;;6.50;35.30;;;;;;5008808;28;25095;-75
2022/03/07 11:26:04;;;;;;;8.90;5.43;;;6.60;35.50;;;;;;5010548;28;25057;-76
2022/03/07 11:28:31;;;;;;;7.70;5.95;;;6.60;34.80;;;;;;5011032;28;25045;-75
2022/03/07 11:30:57;;;;;;;14.40;5.68;;;6.70;35.50;;;;;;5010063;28;25093;-73
2022/03/07 11:33:29;;;;;;;7.35;5.90;;;6.60;35.10;;;;;;4992385;28;25117;-74
2022/03/07 11:35:55;;;;;;;8.05;5.85;;;6.80;34.10;;;;;;5009245;28;25051;-75
2022/03/07 11:38:24;;;;;;;8.27;5.53;;;7.40;35.20;;;;;;5010244;28;25060;-74
2022/03/07 11:41:12;;;;;;;6.45;5.75;;;7.60;33.30;;;;;;5010159;28;25150;-74
2022/03/07 11:43:56;;;;;;;10.07;6.10;;;7.50;32.20;;;;;;5009789;28;25092;-73
2022/03/07 11:46:47;;;;;;;6.85;6.13;;;7.30;32.10;;;;;;5010319;28;25044;-75
2022/03/07 11:49:27;;;;;;;7.47;5.47;;;7.50;30.60;;;;;;5010734;28;25291;-74
2022/03/07 11:52:01;;;;;;;7.70;5.25;;;7.20;33.00;;;;;;5010838;28;25127;-73
2022/03/07 11:54:28;;;;;;;6.57;5.78;;;7.40;32.70;;;;;;5010364;28;25145;-73
2022/03/07 11:57:09;;;;;;;6.30;4.80;;;7.40;30.00;;;;;;5010178;28;25053;-73
2022/03/07 11:59:35;;;;;;;9.45;5.60;;;7.50;30.90;;;;;;5014326;28;25071;-75
2022/03/07 12:02:00;;;;;;;7.15;5.78;;;7.50;30.50;;;;;;5016250;28;25088;-77
2022/03/07 12:04:38;;;;;;;10.18;5.43;;;7.50;31.10;;;;;;5012488;28;25133;-76
2022/03/07 12:07:03;;;;;;;7.43;5.80;;;7.50;31.40;;;;;;5010408;28;25078;-74
2022/03/07 12:09:34;;;;;;;6.50;5.82;;;7.60;30.70;;;;;;5009349;28;25056;-73
2022/03/07 12:12:09;;;;;;;5.80;5.20;;;7.60;31.00;;;;;;5012237;28;25095;-75
2022/03/07 12:14:40;;;;;;;8.75;5.38;;;7.60;30.40;;;;;;5011795;28;25070;-72
2022/03/07 12:17:12;;;;;;;9.27;5.53;;;7.40;31.60;;;;;;5013639;28;25063;-72
2022/03/07 12:19:39;;;;;;;8.15;5.65;;;7.80;29.60;;;;;;5013545;28;25102;-74
2022/03/07 12:22:10;;;;;;;7.03;5.35;;;7.30;29.40;;;;;;5012345;28;25059;-72
2022/03/07 12:24:37;;;;;;;9.38;4.90;;;7.40;29.70;;;;;;5011528;28;25073;-72
2022/03/07 12:27:03;;;;;;;7.40;5.40;;;7.60;29.90;;;;;;5011166;28;25105;-75
2022/03/07 12:29:29;;;;;;;8.73;5.15;;;7.70;28.40;;;;;;5013809;28;25125;-74
2022/03/07 12:32:00;;;;;;;7.65;5.15;;;7.60;30.70;;;;;;5010060;28;25179;-71
2022/03/07 12:34:34;;;;;;;6.93;6.18;;;8.20;30.20;;;;;;5011482;28;25070;-72
2022/03/07 12:37:15;;;;;;;7.07;5.03;;;7.80;28.00;;;;;;4997841;28;25062;-74
2022/03/07 12:39:47;;;;;;;6.97;5.25;;;7.70;28.10;;;;;;5015611;28;25069;-76
2022/03/07 12:42:14;;;;;;;;;;;7.80;27.80;;;;;;5011333;28;25101;-75
2022/03/07 12:44:40;;;;;;;8.77;5.68;;;7.20;28.20;;;;;;4997598;28;25156;-73
2022/03/07 12:47:08;;;;;;;6.65;5.78;;;7.50;28.10;;;;;;4996496;28;25080;-73